createdAt,value
2023-01-11T01:19:08.148Z,4.57
2023-01-11T01:21:35.380Z,4.75
2023-01-11T01:24:02.489Z,3.80
2023-01-11T01:26:29.807Z,3.65
2023-01-11T01:28:56.865Z,3.80
2023-01-11T01:31:24.047Z,4.43
2023-01-11T01:33:51.217Z,4.78
2023-01-11T01:36:18.338Z,4.60
2023-01-11T01:38:45.460Z,5.38
2023-01-11T01:41:16.050Z,5.55
2023-01-11T01:43:47.994Z,3.55
2023-01-11T01:46:15.601Z,4.57
2023-01-11T01:48:44.371Z,4.78
2023-01-11T01:51:12.166Z,3.70
2023-01-11T01:53:41.399Z,4.20
2023-01-11T01:56:34.857Z,3.40
2023-01-11T01:59:04.923Z,3.97
2023-01-11T02:01:47.516Z,4.97
2023-01-11T02:04:34.993Z,4.10
2023-01-11T02:07:07.616Z,4.57
2023-01-11T02:09:53.640Z,4.17
2023-01-11T02:12:20.977Z,2.97
2023-01-11T02:14:48.679Z,4.57
2023-01-11T02:17:15.778Z,5.63
2023-01-11T02:19:55.178Z,3.47
2023-01-11T02:22:30.496Z,3.73
2023-01-11T02:25:18.844Z,3.37
2023-01-11T02:28:02.188Z,4.10
2023-01-11T02:30:39.759Z,3.77
2023-01-11T02:33:06.807Z,4.23
2023-01-11T02:35:41.291Z,4.00
2023-01-11T02:38:14.491Z,4.43
2023-01-11T02:41:00.122Z,3.43
2023-01-11T02:43:45.820Z,4.43
2023-01-11T02:46:17.540Z,5.03
2023-01-11T02:49:00.324Z,4.63
2023-01-11T02:51:32.274Z,4.00
2023-01-11T02:54:04.857Z,2.93
2023-01-11T02:56:34.405Z,3.03
2023-01-11T02:59:02.486Z,3.57
2023-01-11T03:01:29.655Z,5.40
2023-01-11T03:03:56.780Z,4.03
2023-01-11T03:06:26.168Z,3.43
2023-01-11T03:08:53.263Z,5.73
2023-01-11T03:11:57.828Z,4.60
2023-01-11T03:14:41.407Z,4.67
2023-01-11T03:17:26.936Z,4.13
2023-01-11T03:19:55.154Z,3.60
2023-01-11T03:22:34.469Z,3.70
2023-01-11T03:25:07.501Z,3.97
2023-01-11T03:27:40.823Z,4.07
2023-01-11T03:30:13.726Z,4.13
2023-01-11T03:32:53.067Z,3.37
2023-01-11T03:35:29.266Z,4.53
2023-01-11T03:38:01.225Z,3.30
2023-01-11T03:40:39.136Z,5.07
2023-01-11T03:43:11.311Z,5.50
2023-01-11T03:45:44.300Z,5.93
2023-01-11T03:48:14.686Z,4.70
2023-01-11T03:50:42.276Z,3.67
2023-01-11T03:53:10.125Z,4.47
2023-01-11T03:55:42.001Z,4.97
2023-01-11T03:58:09.463Z,4.93
2023-01-11T04:00:37.317Z,6.90
2023-01-11T04:03:04.620Z,5.30
2023-01-11T04:05:31.882Z,4.60
2023-01-11T04:07:59.014Z,6.53
2023-01-11T04:10:26.160Z,5.00
2023-01-11T04:12:53.289Z,6.77
2023-01-11T04:15:20.381Z,7.07
2023-01-11T04:17:47.520Z,5.43
2023-01-11T04:20:14.700Z,5.27
2023-01-11T04:22:41.771Z,5.37
2023-01-11T04:25:09.806Z,3.60
2023-01-11T04:27:36.995Z,4.70
2023-01-11T04:30:04.883Z,4.67
2023-01-11T04:32:32.082Z,5.13
2023-01-11T04:34:59.146Z,4.00
2023-01-11T04:37:26.226Z,4.67
2023-01-11T04:39:53.406Z,4.17
2023-01-11T04:42:21.011Z,5.17
2023-01-11T04:44:49.168Z,4.07
2023-01-11T04:47:17.136Z,3.37
2023-01-11T04:49:44.353Z,3.90
2023-01-11T04:52:12.537Z,4.73
2023-01-11T04:54:39.986Z,4.87
2023-01-11T04:57:07.794Z,4.80
2023-01-11T04:59:34.861Z,4.73
2023-01-11T05:02:02.054Z,3.93
2023-01-11T05:04:29.217Z,4.30
2023-01-11T05:06:56.470Z,3.33
2023-01-11T05:09:23.656Z,4.63
2023-01-11T05:11:50.772Z,4.80
2023-01-11T05:14:18.191Z,5.83
2023-01-11T05:16:45.638Z,4.87
2023-01-11T05:19:13.153Z,5.80
2023-01-11T05:21:41.330Z,4.23
2023-01-11T05:24:11.579Z,4.80
2023-01-11T05:26:39.525Z,5.23
2023-01-11T05:29:08.060Z,3.33
2023-01-11T05:31:35.882Z,4.97
2023-01-11T05:34:03.118Z,4.13
2023-01-11T05:36:30.331Z,4.93
2023-01-11T05:38:57.834Z,4.40
2023-01-11T05:41:25.961Z,5.07
2023-01-11T05:44:12.461Z,4.20
2023-01-11T05:46:40.463Z,5.47
2023-01-11T05:49:08.108Z,4.73
2023-01-11T05:51:35.495Z,4.33
2023-01-11T05:54:03.298Z,4.47
2023-01-11T05:56:30.430Z,4.77
2023-01-11T05:58:58.009Z,6.23
2023-01-11T06:01:25.879Z,4.93
2023-01-11T06:03:53.249Z,5.43
2023-01-11T06:06:20.885Z,6.60
2023-01-11T06:08:48.165Z,5.37
2023-01-11T06:11:15.720Z,5.80
2023-01-11T06:13:43.250Z,6.03
2023-01-11T06:16:12.314Z,6.17
2023-01-11T06:18:40.927Z,4.87
2023-01-11T06:21:08.602Z,6.10
2023-01-11T06:23:36.787Z,6.00
2023-01-11T06:26:04.960Z,5.77
2023-01-11T06:28:32.113Z,5.40
2023-01-11T06:30:59.643Z,5.00
2023-01-11T10:47:41.261Z,8.00
2023-01-11T10:50:28.693Z,8.18
2023-01-11T10:53:00.048Z,7.95
2023-01-11T10:55:47.189Z,7.72
2023-01-11T10:58:26.772Z,7.00
2023-01-11T11:00:57.058Z,6.43
2023-01-11T11:03:37.495Z,6.75
2023-01-11T11:06:04.635Z,6.38
2023-01-11T11:08:34.846Z,6.68
2023-01-11T11:11:02.149Z,8.30
2023-01-11T11:13:29.192Z,7.80
2023-01-11T11:16:01.341Z,9.15
2023-01-11T11:18:28.653Z,7.05
2023-01-11T11:20:59.066Z,6.95
2023-01-11T11:23:28.699Z,7.00
2023-01-11T11:25:57.856Z,7.85
2023-01-11T11:28:27.348Z,5.82
2023-01-11T11:30:55.785Z,6.80
2023-01-11T11:33:24.755Z,7.63
2023-01-11T11:36:00.139Z,7.25
2023-01-11T11:38:30.051Z,5.75
2023-01-11T11:41:07.828Z,7.20
2023-01-11T11:43:36.085Z,6.38
2023-01-11T11:46:04.936Z,7.10
2023-01-11T11:48:35.585Z,6.68
2023-01-11T11:51:03.998Z,6.47
2023-01-11T11:53:46.165Z,7.10
2023-01-11T11:56:28.903Z,6.53
2023-01-11T11:58:56.686Z,7.20
2023-01-11T12:01:28.243Z,7.05
2023-01-11T12:03:58.125Z,11.23
2023-01-11T12:06:26.875Z,5.75
2023-01-11T12:08:55.117Z,7.20
2023-01-11T12:11:30.066Z,7.22
2023-01-11T12:14:17.464Z,7.47
2023-01-11T12:16:45.821Z,7.45
2023-01-11T12:19:35.292Z,6.35
2023-01-11T12:22:12.393Z,6.15
2023-01-11T12:24:39.572Z,7.95
2023-01-11T12:27:25.586Z,6.70
2023-01-11T12:30:05.038Z,7.15
2023-01-11T12:32:32.269Z,4.85
2023-01-11T12:35:05.901Z,7.05
2023-01-11T12:37:52.106Z,8.55
2023-01-11T12:40:22.171Z,6.72
2023-01-11T12:42:55.117Z,7.05
2023-01-11T12:45:22.294Z,6.93
2023-01-11T12:47:49.359Z,8.55
2023-01-11T12:50:16.545Z,8.50
2023-01-11T12:52:49.824Z,8.38
2023-01-11T12:55:28.969Z,8.38
2023-01-11T12:58:04.990Z,6.47
2023-01-11T13:00:43.080Z,7.53
2023-01-11T13:03:16.270Z,7.60
2023-01-11T13:05:46.590Z,8.15
2023-01-11T13:08:22.199Z,7.57
2023-01-11T13:10:49.327Z,6.85
2023-01-11T13:13:23.012Z,6.95
2023-01-11T13:16:09.808Z,8.18
2023-01-11T13:18:44.026Z,7.70
2023-01-11T13:21:11.174Z,7.53
2023-01-11T13:23:47.120Z,5.25
2023-01-11T13:26:34.547Z,8.57
2023-01-11T13:29:14.369Z,7.75
2023-01-11T13:31:42.201Z,8.00
2023-01-11T19:29:17.232Z,10.30
2023-01-11T19:31:44.983Z,12.17
2023-01-11T19:36:48.973Z,12.90
2023-01-11T19:39:16.223Z,13.93
2023-01-11T19:42:01.359Z,8.67
2023-01-11T19:44:35.590Z,9.53
2023-01-11T19:47:11.974Z,13.33
2023-01-11T19:49:40.422Z,12.80
2023-01-11T19:52:12.684Z,12.30
2023-01-11T19:54:43.832Z,14.33
2023-01-11T19:57:11.849Z,14.77
2023-01-11T19:59:39.084Z,12.20
2023-01-11T20:02:06.249Z,9.53
2023-01-11T20:04:33.888Z,13.03
2023-01-11T20:07:01.066Z,10.83
2023-01-11T20:09:28.187Z,12.63
2023-01-11T20:11:55.551Z,10.87
2023-01-11T20:14:22.834Z,10.80
2023-01-11T20:16:49.927Z,10.50
2023-01-11T20:19:17.163Z,10.13
2023-01-11T20:21:44.354Z,10.20
2023-01-11T20:24:14.714Z,10.50
2023-01-11T20:26:41.954Z,11.10
2023-01-11T20:29:09.307Z,10.23
2023-01-11T20:31:36.751Z,8.10
2023-01-11T20:34:09.873Z,12.40
2023-01-11T20:36:37.501Z,10.27
2023-01-11T20:39:05.466Z,11.17
2023-01-11T20:41:47.861Z,9.30
2023-01-11T20:44:16.567Z,10.07
2023-01-11T20:46:46.275Z,10.00
2023-01-11T20:49:15.030Z,11.48
2023-01-11T20:51:42.834Z,12.43
2023-01-11T20:54:10.413Z,11.80
2023-01-11T20:56:38.654Z,12.23
2023-01-11T20:59:07.180Z,12.17
2023-01-11T21:01:34.354Z,12.23
2023-01-11T21:04:02.858Z,10.63
2023-01-11T21:06:31.714Z,11.85
2023-01-11T21:08:59.835Z,10.37
2023-01-11T21:11:27.947Z,8.90
2023-01-11T21:13:55.932Z,11.00
2023-01-11T21:16:28.022Z,11.30
2023-01-11T21:18:59.478Z,11.67
2023-01-11T21:21:26.645Z,10.53
2023-01-11T21:23:57.738Z,10.03
2023-01-11T21:26:25.245Z,9.55
2023-01-11T21:28:53.572Z,10.93
2023-01-11T21:31:21.355Z,11.83
2023-01-11T21:33:49.464Z,10.13
2023-01-11T21:36:18.379Z,10.90
2023-01-11T21:38:45.700Z,10.33
2023-01-11T21:41:16.754Z,10.60
2023-01-11T21:43:44.863Z,10.30
2023-01-11T21:46:12.953Z,8.17
2023-01-11T21:48:40.323Z,10.87
2023-01-11T21:51:10.518Z,10.67
2023-01-11T21:53:37.892Z,12.38
2023-01-11T21:56:05.837Z,10.97
2023-01-11T21:58:33.656Z,11.53
2023-01-11T22:01:00.931Z,11.30
2023-01-11T22:03:28.909Z,10.07
2023-01-11T22:06:02.551Z,10.67
2023-01-11T22:08:29.735Z,10.83
2023-01-11T22:11:00.624Z,9.90
2023-01-11T22:13:31.395Z,9.35
2023-01-11T22:16:01.948Z,10.57
2023-01-11T22:18:29.132Z,10.90
2023-01-11T22:20:56.292Z,10.53
2023-01-11T22:23:23.544Z,10.97
2023-01-11T22:25:50.630Z,12.07
2023-01-11T22:28:18.165Z,11.67
2023-01-11T22:30:45.269Z,11.63
2023-01-11T22:33:12.326Z,10.13
2023-01-11T22:35:39.463Z,10.70
2023-01-11T22:38:06.567Z,11.10
2023-01-11T22:40:33.680Z,11.00
2023-01-11T22:43:00.829Z,10.50
2023-01-11T22:45:28.258Z,9.47
2023-01-11T22:47:55.330Z,9.17
2023-01-11T22:50:22.497Z,9.63
2023-01-11T22:52:49.554Z,9.53
2023-01-11T22:55:16.701Z,9.80
2023-01-11T22:57:43.846Z,8.37
2023-01-11T23:00:11.793Z,9.90
2023-01-11T23:02:38.970Z,8.17
2023-01-11T23:05:06.734Z,9.10
2023-01-11T23:07:33.789Z,8.70
2023-01-11T23:10:00.857Z,8.30
2023-01-11T23:12:46.580Z,10.20
2023-01-11T23:15:13.650Z,9.93
2023-01-11T23:17:40.730Z,9.87
2023-01-11T23:20:08.122Z,9.90
2023-01-11T23:22:35.228Z,10.37
2023-01-11T23:25:03.502Z,9.97
2023-01-11T23:27:30.710Z,9.07
2023-01-11T23:29:57.793Z,10.47
2023-01-11T23:32:24.887Z,10.47
2023-01-11T23:34:52.100Z,10.83
2023-01-11T23:37:19.162Z,10.67
2023-01-11T23:39:46.239Z,10.67
2023-01-11T23:42:26.611Z,11.30
2023-01-11T23:44:54.469Z,11.30
2023-01-11T23:47:23.823Z,12.33
2023-01-11T23:50:09.353Z,13.07
2023-01-11T23:52:36.455Z,11.97
2023-01-11T23:55:03.675Z,11.70
2023-01-11T23:57:30.823Z,12.50
2023-01-11T23:59:57.938Z,12.13
